createdAt,value
2022-09-01T00:00:29.160Z,22.20
2022-09-01T00:02:57.331Z,22.20
2022-09-01T00:05:25.291Z,22.20
2022-09-01T00:07:53.392Z,22.20
2022-09-01T00:10:22.873Z,22.20
2022-09-01T00:12:50.843Z,22.10
2022-09-01T00:15:18.805Z,22.10
2022-09-01T00:17:46.709Z,22.10
2022-09-01T00:20:20.105Z,22.10
2022-09-01T00:22:48.987Z,22.10
2022-09-01T00:25:19.993Z,22.10
2022-09-01T00:27:49.524Z,22.00
2022-09-01T00:30:17.691Z,22.00
2022-09-01T00:32:46.798Z,22.00
2022-09-01T00:35:15.568Z,22.00
2022-09-01T00:37:44.693Z,22.00
2022-09-01T00:40:16.813Z,21.90
2022-09-01T00:42:45.903Z,21.90
2022-09-01T00:45:15.488Z,21.90
2022-09-01T00:47:44.448Z,21.90
2022-09-01T00:50:15.911Z,21.90
2022-09-01T00:52:50.864Z,21.90
2022-09-01T00:55:27.622Z,21.80
2022-09-01T00:57:56.077Z,21.80
2022-09-01T01:00:32.154Z,21.80
2022-09-01T01:03:00.620Z,21.80
2022-09-01T01:05:34.837Z,21.80
2022-09-01T01:08:05.498Z,21.70
2022-09-01T01:10:40.888Z,21.70
2022-09-01T01:13:17.182Z,21.70
2022-09-01T01:15:46.581Z,21.70
2022-09-01T01:18:16.008Z,21.70
2022-09-01T01:21:19.045Z,21.60
2022-09-01T01:23:58.433Z,21.60
2022-09-01T01:26:28.429Z,21.50
2022-09-01T01:28:56.457Z,21.60
2022-09-01T01:31:24.756Z,21.60
2022-09-01T01:33:56.885Z,21.50
2022-09-01T01:36:32.130Z,21.50
2022-09-01T01:39:07.960Z,21.50
2022-09-01T01:41:42.285Z,21.50
2022-09-01T01:44:13.133Z,21.50
2022-09-01T01:46:46.329Z,21.40
2022-09-01T01:49:18.880Z,21.40
2022-09-01T01:51:49.200Z,21.40
2022-09-01T01:54:19.811Z,21.40
2022-09-01T01:56:49.718Z,21.40
2022-09-01T01:59:19.340Z,21.40
2022-09-01T02:01:51.340Z,21.30
2022-09-01T02:04:21.404Z,21.30
2022-09-01T02:06:51.987Z,21.30
2022-09-01T02:09:23.224Z,21.30
2022-09-01T02:11:57.036Z,21.30
2022-09-01T02:14:25.447Z,21.30
2022-09-01T02:16:55.979Z,21.30
2022-09-01T02:19:24.162Z,21.20
2022-09-01T02:21:56.214Z,21.20
2022-09-01T02:24:25.749Z,21.20
2022-09-01T02:26:55.510Z,21.20
2022-09-01T02:29:26.475Z,21.20
2022-09-01T02:31:56.478Z,21.10
2022-09-01T02:34:28.991Z,21.10
2022-09-01T02:36:58.558Z,21.10
2022-09-01T02:39:30.286Z,21.10
2022-09-01T02:42:01.371Z,21.10
2022-09-01T02:44:31.130Z,21.10
2022-09-01T02:47:01.742Z,21.00
2022-09-01T02:49:30.147Z,21.00
2022-09-01T02:52:01.510Z,21.00
2022-09-01T02:54:33.568Z,21.00
2022-09-01T02:57:03.951Z,20.90
2022-09-01T02:59:32.141Z,20.90
2022-09-01T03:02:01.704Z,20.90
2022-09-01T03:04:35.450Z,20.90
2022-09-01T03:07:06.632Z,20.90
2022-09-01T03:09:35.134Z,20.90
2022-09-01T03:12:07.181Z,20.80
2022-09-01T03:14:35.802Z,20.80
2022-09-01T03:17:03.705Z,20.80
2022-09-01T03:19:41.903Z,20.80
2022-09-01T03:22:10.085Z,20.80
2022-09-01T03:24:39.045Z,20.80
2022-09-01T03:27:08.910Z,20.70
2022-09-01T03:29:38.210Z,20.70
2022-09-01T03:32:07.184Z,20.70
2022-09-01T03:34:36.852Z,20.70
2022-09-01T03:37:07.849Z,20.70
2022-09-01T03:39:35.796Z,20.60
2022-09-01T03:42:03.859Z,20.60
2022-09-01T03:44:40.298Z,20.60
2022-09-01T03:47:11.387Z,20.60
2022-09-01T03:49:40.491Z,20.60
2022-09-01T03:52:08.927Z,20.60
2022-09-01T03:54:37.785Z,20.60
2022-09-01T03:57:09.831Z,20.50
2022-09-01T03:59:45.295Z,20.50
2022-09-01T04:02:14.629Z,20.50
2022-09-01T04:04:42.943Z,20.50
2022-09-01T04:07:10.947Z,20.50
2022-09-01T04:09:46.996Z,20.40
2022-09-01T04:12:16.001Z,20.40
2022-09-01T04:14:48.492Z,20.40
2022-09-01T04:17:33.744Z,20.40
2022-09-01T04:20:08.741Z,20.40
2022-09-01T04:22:38.356Z,20.40
2022-09-01T04:25:08.914Z,20.30
2022-09-01T04:27:40.499Z,20.30
2022-09-01T04:30:12.157Z,20.30
2022-09-01T04:32:44.099Z,20.30
2022-09-01T04:35:16.923Z,20.30
2022-09-01T04:37:48.433Z,20.30
2022-09-01T04:40:18.643Z,20.30
2022-09-01T04:42:47.641Z,20.20
2022-09-01T04:45:20.817Z,20.20
2022-09-01T04:47:49.194Z,20.20
2022-09-01T04:50:18.766Z,20.20
2022-09-01T04:53:07.079Z,20.10
2022-09-01T04:55:43.862Z,20.10
2022-09-01T04:58:14.086Z,20.10
2022-09-01T05:00:45.105Z,20.10
2022-09-01T05:03:13.129Z,20.10
2022-09-01T05:05:55.529Z,20.10
2022-09-01T05:08:24.985Z,20.10
2022-09-01T05:10:57.254Z,20.10
2022-09-01T05:13:56.019Z,20.10
2022-09-01T05:16:27.825Z,20.10
2022-09-01T05:18:57.886Z,20.10
2022-09-01T05:21:30.579Z,20.10
2022-09-01T05:24:03.809Z,20.10
2022-09-01T05:26:34.621Z,20.00
2022-09-01T05:29:10.584Z,20.00
2022-09-01T05:31:41.338Z,20.10
2022-09-01T05:34:10.933Z,20.10
2022-09-01T05:36:50.505Z,20.00
2022-09-01T05:39:19.047Z,20.10
2022-09-01T05:41:49.317Z,20.10
2022-09-01T05:44:18.860Z,20.10
2022-09-01T05:46:49.568Z,20.10
2022-09-01T05:49:19.456Z,20.10
2022-09-01T05:51:52.401Z,20.10
2022-09-01T05:54:27.293Z,20.10
2022-09-01T05:57:12.873Z,20.20
2022-09-01T05:59:54.084Z,20.20
2022-09-01T06:02:27.222Z,20.20
2022-09-01T06:04:57.329Z,20.20
2022-09-01T06:07:30.441Z,20.20
2022-09-01T06:10:02.046Z,20.20
2022-09-01T06:12:30.351Z,20.30
2022-09-01T06:14:58.912Z,20.30
2022-09-01T06:17:30.814Z,20.20
2022-09-01T06:20:10.489Z,20.30
2022-09-01T06:22:40.951Z,20.40
2022-09-01T06:25:11.014Z,20.40
2022-09-01T06:27:44.629Z,20.40
2022-09-01T06:30:26.107Z,20.40
2022-09-01T06:33:02.235Z,20.40
2022-09-01T06:35:31.883Z,20.50
2022-09-01T06:38:01.878Z,20.50
2022-09-01T06:40:42.644Z,20.50
2022-09-01T06:43:16.125Z,20.60
2022-09-01T06:45:54.205Z,20.60
2022-09-01T06:48:25.482Z,20.60
2022-09-01T06:51:20.975Z,20.60
2022-09-01T06:53:57.028Z,20.70
2022-09-01T06:56:32.287Z,20.70
2022-09-01T06:59:05.094Z,20.80
2022-09-01T07:01:35.526Z,20.80
2022-09-01T07:04:12.499Z,20.80
2022-09-01T07:06:59.378Z,20.90
2022-09-01T07:09:50.147Z,20.90
2022-09-01T07:13:04.783Z,21.00
2022-09-01T07:18:21.446Z,21.10
2022-09-01T07:21:36.561Z,21.10
2022-09-01T07:23:47.399Z,21.10
2022-09-01T07:26:35.597Z,21.20
2022-09-01T07:29:07.051Z,21.20
2022-09-01T07:34:46.284Z,21.30
2022-09-01T07:38:47.591Z,21.40
2022-09-01T07:43:22.269Z,21.50
2022-09-01T07:51:50.069Z,22.00
2022-09-01T07:54:23.929Z,22.20
2022-09-01T07:56:55.583Z,22.40
2022-09-01T07:59:26.696Z,22.60
2022-09-01T08:02:05.611Z,22.80
2022-09-01T08:04:34.497Z,23.00
2022-09-01T08:07:03.123Z,23.30
2022-09-01T08:09:37.371Z,23.50
2022-09-01T08:12:09.278Z,23.70
2022-09-01T08:14:47.920Z,24.00
2022-09-01T08:17:18.092Z,24.20
2022-09-01T08:20:08.861Z,24.40
2022-09-01T08:22:59.891Z,24.70
2022-09-01T08:25:34.956Z,24.80
2022-09-01T08:28:03.799Z,25.00
2022-09-01T08:30:33.506Z,25.10
2022-09-01T08:33:10.650Z,25.30
2022-09-01T08:35:42.165Z,25.40
2022-09-01T08:38:10.820Z,25.50
2022-09-01T08:40:44.225Z,25.60
2022-09-01T08:43:25.842Z,25.70
2022-09-01T08:45:59.092Z,25.80
2022-09-01T08:49:23.820Z,25.90
2022-09-01T08:51:33.074Z,25.90
2022-09-01T08:54:11.644Z,26.00
2022-09-01T08:56:43.887Z,26.00
2022-09-01T08:59:21.342Z,26.10
2022-09-01T09:02:34.144Z,26.00
2022-09-01T09:05:18.823Z,26.00
2022-09-01T09:08:26.518Z,25.90
2022-09-01T09:11:03.012Z,25.90
2022-09-01T09:13:50.926Z,25.90
2022-09-01T09:16:25.399Z,25.80
2022-09-01T09:18:59.736Z,25.80
2022-09-01T09:21:34.829Z,25.80
2022-09-01T09:24:11.919Z,25.70
2022-09-01T09:26:43.260Z,25.80
2022-09-01T09:29:12.768Z,25.70
2022-09-01T09:31:49.920Z,25.70
2022-09-01T09:34:33.142Z,25.60
2022-09-01T09:37:23.150Z,25.60
2022-09-01T09:40:12.292Z,25.60
2022-09-01T09:42:42.525Z,25.60
2022-09-01T09:45:26.162Z,25.50
2022-09-01T09:47:56.540Z,25.50
2022-09-01T09:50:29.815Z,25.50
2022-09-01T09:53:16.362Z,25.50
2022-09-01T09:55:59.202Z,25.50
2022-09-01T09:58:37.216Z,25.40
2022-09-01T10:01:16.270Z,25.40
2022-09-01T10:03:50.843Z,25.40
2022-09-01T10:06:34.605Z,25.40
2022-09-01T10:09:07.250Z,25.40
2022-09-01T10:11:41.627Z,25.40
2022-09-01T10:14:35.905Z,25.40
2022-09-01T10:17:15.957Z,25.30
2022-09-01T10:19:52.331Z,25.30
2022-09-01T10:22:21.805Z,25.40
2022-09-01T10:24:50.341Z,25.30
2022-09-01T10:27:24.249Z,25.30
2022-09-01T10:30:19.608Z,25.30
2022-09-01T10:32:56.050Z,25.20
2022-09-01T10:35:29.677Z,25.20
2022-09-01T10:38:00.417Z,25.20
2022-09-01T10:40:49.227Z,25.20
2022-09-01T10:43:37.249Z,25.10
2022-09-01T10:46:50.928Z,25.10
2022-09-01T10:50:01.823Z,25.10
2022-09-01T10:53:02.569Z,25.00
2022-09-01T10:55:48.986Z,25.00
2022-09-01T11:02:23.635Z,24.90
2022-09-01T11:05:17.621Z,24.90
2022-09-01T11:08:03.143Z,25.00
2022-09-01T11:10:53.264Z,24.90
2022-09-01T11:13:49.063Z,24.90
2022-09-01T11:16:53.207Z,24.90
2022-09-01T11:19:41.239Z,24.90
2022-09-01T11:22:26.467Z,24.90
2022-09-01T11:25:41.275Z,24.80
2022-09-01T11:28:45.303Z,24.80
2022-09-01T11:31:30.888Z,24.80
2022-09-01T11:34:18.999Z,24.80
2022-09-01T11:36:55.398Z,24.80
2022-09-01T11:39:39.243Z,24.80
2022-09-01T11:42:14.654Z,24.80
2022-09-01T11:44:51.810Z,24.80
2022-09-01T11:47:25.388Z,24.90
2022-09-01T11:49:58.047Z,24.90
2022-09-01T11:52:31.061Z,24.90
2022-09-01T11:55:01.254Z,24.90
2022-09-01T11:57:33.145Z,24.90
2022-09-01T12:00:06.126Z,24.90
2022-09-01T12:02:46.684Z,24.90
2022-09-01T12:05:32.500Z,24.90
2022-09-01T12:08:04.731Z,24.90
2022-09-01T12:10:38.404Z,24.90
2022-09-01T12:13:09.872Z,24.90
2022-09-01T12:16:00.502Z,24.90
2022-09-01T12:18:35.026Z,24.90
2022-09-01T12:21:07.866Z,24.80
2022-09-01T12:23:40.533Z,24.90
2022-09-01T12:26:14.008Z,24.90
2022-09-01T12:28:43.559Z,24.90
2022-09-01T12:31:19.031Z,24.90
2022-09-01T12:33:48.742Z,24.90
2022-09-01T12:36:24.769Z,24.90
2022-09-01T12:38:55.488Z,24.90
2022-09-01T12:41:40.104Z,24.90
2022-09-01T12:44:31.383Z,24.80
2022-09-01T12:47:02.527Z,24.90
2022-09-01T12:49:45.370Z,24.90
2022-09-01T12:52:26.092Z,24.90
2022-09-01T12:55:47.241Z,24.90
2022-09-01T12:58:07.806Z,24.90
2022-09-01T13:00:54.297Z,24.90
2022-09-01T13:03:23.368Z,24.90
2022-09-01T13:05:54.260Z,24.90
2022-09-01T13:08:27.132Z,24.90
2022-09-01T13:10:58.429Z,24.90
2022-09-01T13:13:29.333Z,24.90
2022-09-01T13:16:01.693Z,24.90
2022-09-01T13:18:30.728Z,25.00
2022-09-01T13:20:59.818Z,25.00
2022-09-01T13:23:27.915Z,25.00
2022-09-01T13:25:55.907Z,25.00
2022-09-01T13:34:10.877Z,25.00
2022-09-01T13:36:43.682Z,25.00
2022-09-01T13:39:13.921Z,25.00
2022-09-01T13:41:42.398Z,25.00
2022-09-01T13:44:11.061Z,25.00
2022-09-01T13:50:06.577Z,25.00
2022-09-01T13:52:18.572Z,25.00
2022-09-01T13:54:47.708Z,25.00
2022-09-01T13:57:16.678Z,25.00
2022-09-01T13:59:45.357Z,25.10
2022-09-01T14:02:14.571Z,25.00
2022-09-01T14:04:42.521Z,25.10
2022-09-01T14:07:10.451Z,25.00
2022-09-01T14:09:38.406Z,25.10
2022-09-01T14:12:06.896Z,25.10
2022-09-01T14:17:24.602Z,25.00
2022-09-01T14:19:52.764Z,25.10
2022-09-01T14:22:21.145Z,25.00
2022-09-01T14:24:49.213Z,25.10
2022-09-01T14:27:17.113Z,25.10
2022-09-01T14:32:17.180Z,25.10
2022-09-01T14:34:46.415Z,25.00
2022-09-01T14:37:14.480Z,25.00
2022-09-01T14:39:43.257Z,25.00
2022-09-01T14:42:11.820Z,25.00
2022-09-01T14:44:40.682Z,25.00
2022-09-01T14:47:11.697Z,25.00
2022-09-01T14:49:40.794Z,25.00
2022-09-01T14:52:11.647Z,25.00
2022-09-01T14:54:42.993Z,25.00
2022-09-01T15:00:00.372Z,25.00
2022-09-01T15:02:29.163Z,25.00
2022-09-01T15:04:57.564Z,25.00
2022-09-01T15:07:26.995Z,25.00
2022-09-01T15:09:55.176Z,25.00
2022-09-01T15:12:23.576Z,25.00
2022-09-01T15:14:51.758Z,25.00
2022-09-01T15:17:19.659Z,25.00
2022-09-01T15:19:47.533Z,25.00
2022-09-01T15:22:16.427Z,25.00
2022-09-01T15:24:45.756Z,25.00
2022-09-01T15:27:13.951Z,25.00
2022-09-01T15:29:45.599Z,25.00
2022-09-01T15:32:20.602Z,25.00
2022-09-01T15:34:55.707Z,24.90
2022-09-01T15:37:23.602Z,24.90
2022-09-01T15:39:52.820Z,24.90
2022-09-01T15:42:21.722Z,24.90
2022-09-01T15:44:49.596Z,24.90
2022-09-01T15:47:17.713Z,24.90
2022-09-01T15:49:45.656Z,24.90
2022-09-01T15:52:13.902Z,24.90
2022-09-01T15:54:41.777Z,24.90
2022-09-01T15:57:12.064Z,24.90
2022-09-01T15:59:40.103Z,24.90
2022-09-01T16:02:10.227Z,24.80
2022-09-01T16:04:39.811Z,24.80
2022-09-01T16:07:08.230Z,24.80
2022-09-01T16:09:36.958Z,24.80
2022-09-01T16:12:08.021Z,24.80
2022-09-01T16:14:38.283Z,24.80
2022-09-01T16:17:14.820Z,24.80
2022-09-01T16:19:54.703Z,24.70
2022-09-01T16:22:28.353Z,24.70
2022-09-01T16:25:02.292Z,24.70
2022-09-01T16:27:35.875Z,24.70
2022-09-01T16:30:08.585Z,24.70
2022-09-01T16:32:36.919Z,24.60
2022-09-01T16:35:06.913Z,24.70
2022-09-01T16:37:53.431Z,24.60
2022-09-01T16:40:40.936Z,24.60
2022-09-01T16:43:17.915Z,24.60
2022-09-01T16:45:57.576Z,24.60
2022-09-01T16:48:41.479Z,24.60
2022-09-01T16:51:20.572Z,24.60
2022-09-01T16:54:09.030Z,24.60
2022-09-01T16:56:48.921Z,24.60
2022-09-01T16:59:31.144Z,24.60
2022-09-01T17:02:24.059Z,24.60
2022-09-01T17:05:02.049Z,24.60
2022-09-01T17:07:40.500Z,24.60
2022-09-01T17:10:29.850Z,24.60
2022-09-01T17:13:07.262Z,24.60
2022-09-01T17:15:40.947Z,24.60
2022-09-01T17:18:22.964Z,24.50
2022-09-01T17:20:58.152Z,24.50
2022-09-01T17:23:34.568Z,24.50
2022-09-01T17:26:08.168Z,24.50
2022-09-01T17:28:43.888Z,24.50
2022-09-01T17:31:19.430Z,24.50
2022-09-01T17:34:08.596Z,24.50
2022-09-01T17:36:50.829Z,24.50
2022-09-01T17:39:36.431Z,24.50
2022-09-01T17:42:12.850Z,24.50
2022-09-01T17:44:50.949Z,24.40
2022-09-01T17:47:29.576Z,24.50
2022-09-01T17:50:09.638Z,24.40
2022-09-01T17:52:58.239Z,24.40
2022-09-01T17:55:44.448Z,24.40
2022-09-01T17:58:32.417Z,24.40
2022-09-01T18:01:09.749Z,24.40
2022-09-01T18:03:58.813Z,24.40
2022-09-01T18:06:36.854Z,24.30
2022-09-01T18:09:07.109Z,24.40
2022-09-01T18:11:48.502Z,24.30
2022-09-01T18:14:22.764Z,24.30
2022-09-01T18:17:03.291Z,24.30
2022-09-01T18:19:39.493Z,24.30
2022-09-01T18:22:15.284Z,24.30
2022-09-01T18:24:54.296Z,24.30
2022-09-01T18:27:24.339Z,24.30
2022-09-01T18:29:53.405Z,24.30
2022-09-01T18:32:39.231Z,24.20
2022-09-01T18:35:30.195Z,24.20
2022-09-01T18:38:20.534Z,24.20
2022-09-01T18:41:09.296Z,24.20
2022-09-01T18:43:44.661Z,24.20
2022-09-01T18:46:29.808Z,24.20
2022-09-01T18:49:11.323Z,24.10
2022-09-01T18:52:00.098Z,24.10
2022-09-01T18:54:37.742Z,24.10
2022-09-01T18:57:09.266Z,24.10
2022-09-01T18:59:55.771Z,24.10
2022-09-01T19:02:45.209Z,24.00
2022-09-01T19:05:33.620Z,24.00
2022-09-01T19:08:17.535Z,24.00
2022-09-01T19:10:59.197Z,24.00
2022-09-01T19:13:47.048Z,23.90
2022-09-01T19:16:37.951Z,23.90
2022-09-01T19:19:23.204Z,23.90
2022-09-01T19:21:55.811Z,23.90
2022-09-01T19:24:34.251Z,23.90
2022-09-01T19:27:12.119Z,23.80
2022-09-01T19:29:49.810Z,23.70
2022-09-01T19:32:21.845Z,23.80
2022-09-01T19:34:56.213Z,23.80
2022-09-01T19:37:24.796Z,23.80
2022-09-01T19:39:54.574Z,23.80
2022-09-01T19:42:32.062Z,23.70
2022-09-01T19:45:09.451Z,23.70
2022-09-01T19:47:48.551Z,23.60
2022-09-01T19:50:23.948Z,23.60
2022-09-01T19:52:56.908Z,23.60
2022-09-01T19:55:32.220Z,23.50
2022-09-01T19:58:07.494Z,23.50
2022-09-01T20:00:50.960Z,23.50
2022-09-01T20:03:27.846Z,23.50
2022-09-01T20:06:02.393Z,23.40
2022-09-01T20:08:38.076Z,23.40
2022-09-01T20:11:14.609Z,23.40
2022-09-01T20:14:04.497Z,23.30
2022-09-01T20:16:40.107Z,23.30
2022-09-01T20:19:12.856Z,23.30
2022-09-01T20:21:46.290Z,23.20
2022-09-01T20:24:38.473Z,23.20
2022-09-01T20:27:22.064Z,23.20
2022-09-01T20:30:01.474Z,23.10
2022-09-01T20:32:40.157Z,23.10
2022-09-01T20:35:15.326Z,23.10
2022-09-01T20:37:50.217Z,23.00
2022-09-01T20:40:27.133Z,23.00
2022-09-01T20:43:12.631Z,23.00
2022-09-01T20:45:42.644Z,23.00
2022-09-01T20:48:16.083Z,22.90
2022-09-01T20:50:54.219Z,22.80
2022-09-01T20:54:02.174Z,22.80
2022-09-01T20:56:43.157Z,22.80
2022-09-01T20:59:20.445Z,22.80
2022-09-01T21:01:59.181Z,22.70
2022-09-01T21:04:44.471Z,22.70
2022-09-01T21:07:19.188Z,22.70
2022-09-01T21:10:00.743Z,22.60
2022-09-01T21:12:38.096Z,22.60
2022-09-01T21:15:31.963Z,22.50
2022-09-01T21:18:17.230Z,22.50
2022-09-01T21:20:57.851Z,22.50
2022-09-01T21:23:26.326Z,22.50
2022-09-01T21:25:54.294Z,22.50
2022-09-01T21:28:26.332Z,22.50
2022-09-01T21:30:57.580Z,22.40
2022-09-01T21:33:30.064Z,22.40
2022-09-01T21:36:00.730Z,22.30
2022-09-01T21:38:29.899Z,22.30
2022-09-01T21:41:01.704Z,22.30
2022-09-01T21:43:34.573Z,22.20
2022-09-01T21:46:03.503Z,22.20
2022-09-01T21:48:32.789Z,22.20
2022-09-01T21:51:00.717Z,22.20
2022-09-01T21:53:28.662Z,22.20
2022-09-01T21:55:56.546Z,22.10
2022-09-01T21:58:24.506Z,22.10
2022-09-01T22:00:52.502Z,22.10
2022-09-01T22:03:20.795Z,22.00
2022-09-01T22:05:51.195Z,22.00
2022-09-01T22:08:19.346Z,22.00
2022-09-01T22:10:51.503Z,21.90
2022-09-01T22:13:24.849Z,21.90
2022-09-01T22:15:55.020Z,21.90
2022-09-01T22:18:23.723Z,21.90
2022-09-01T22:21:03.284Z,21.80
2022-09-01T22:23:31.243Z,21.80
2022-09-01T22:25:59.438Z,21.80
2022-09-01T22:28:27.409Z,21.80
2022-09-01T22:30:55.399Z,21.70
2022-09-01T22:33:24.955Z,21.70
2022-09-01T22:35:57.235Z,21.70
2022-09-01T22:38:25.200Z,21.60
2022-09-01T22:40:55.729Z,21.60
2022-09-01T22:43:24.668Z,21.60
2022-09-01T22:45:54.180Z,21.60
2022-09-01T22:48:26.030Z,21.60
2022-09-01T22:50:55.474Z,21.50
2022-09-01T22:53:24.017Z,21.50
2022-09-01T22:55:53.374Z,21.50
2022-09-01T22:58:21.538Z,21.50
2022-09-01T23:00:53.459Z,21.40
2022-09-01T23:03:23.311Z,21.40
2022-09-01T23:06:05.236Z,21.30
2022-09-01T23:08:34.011Z,21.30
2022-09-01T23:11:02.150Z,21.30
2022-09-01T23:13:30.739Z,21.30
2022-09-01T23:16:04.527Z,21.30
2022-09-01T23:18:36.521Z,21.20
2022-09-01T23:21:07.738Z,21.20
2022-09-01T23:23:36.871Z,21.20
2022-09-01T23:26:07.767Z,21.20
2022-09-01T23:28:37.741Z,21.10
2022-09-01T23:31:09.178Z,21.10
2022-09-01T23:33:37.647Z,21.10
2022-09-01T23:36:11.204Z,21.00
2022-09-01T23:38:40.399Z,21.10
2022-09-01T23:41:12.044Z,21.00
2022-09-01T23:43:41.133Z,21.00
2022-09-01T23:46:18.536Z,20.90
2022-09-01T23:48:46.616Z,21.00
2022-09-01T23:51:17.944Z,20.90
2022-09-01T23:53:48.393Z,20.90
2022-09-01T23:56:19.321Z,20.90
2022-09-01T23:58:47.397Z,20.90
